Initiation.

Live the fighter pilot experience !

 Accompanied by real fighter pilots who have flown on Rafale and Mirage, come and share the unique experience of a flight in a fighter jet.

Join our fighter fleet at Reims-Prunay airfield where our 3 L39 Albatros jets are based.

After the safety equipment check, you will attend a detailed mission briefing where the sequence of procedures and aerobatics will be discussed.

Let's go!

Some useful information.

 During a flight of about 30 minutes, you will have the opportunity to discover the region at low altitude and high speed before performing combat manoeuvres. Guaranteed sensations and an unprecedented immersion in the world of fighter pilots.

Our pilots, all of which are instructors, are able to offer you an introductory flight during which you can discover the piloting of this fighter aircraft.

Our other services.

Aeronautical weekends.
Customer events.
Training.
Book your initiation flight.
METAR:

LFQA 070730Z AUTO VRB01KT 4900 BR BKN006 BKN028 OVC036 02/02 Q1020


live view of the airfield
invoicing legal Notice privacy policy
Cochet Concept
cx